Pineville, Kentucky
Current Conditions -  °F | °C
As of 2:15 AM on Thursday 18 Dec 2014 (Local Time) from K1A6 Reporting Station
Overcast Overcast  
Wind Chill: 27°   Ceiling: 2000
Heat Index: 27°   Visibility: 7mi
Dew Point: 27°   Wind: 0mph
Humidity: 97%   Direction: NA
Pressure: 30.24"   Gusts: NA
Location:  36.76°N, 83.69°W
Report Text: K1A6 180715Z AUTO 00000KT 7SM OVC020 M03/M03 A3024 RMK AO2 T10261030
Loading
Personal Weather Stations






























Interactive Weather Map New forecast layout! Learn more

10-Day Weather Forecast

Advertisements
Track Severe Weather on mobile